Nearby METAR Reports

 

KPTW - Pottstown, Pennsylvania, USA
Distance from station: NE 6mi, 10km
Updated: 10/22/2017 4:54am
Clear
Clear
 Wind from calm
Wind: Calm
Temperature: 43°F , 6°C
Dew Point: 43°F , 6°C
Humidity: 100%
Barometer: 30.38 inHg , 1028.8 hPa
Clouds: Clear
Visibility: 7 miles , 11 km
2017/10/22 08:54 KPTW 220854Z AUTO 00000KT 7SM CLR 06/06 A3038 RMK AO2 SLP285 T00560056 53004
KMQS - Coatesville, Pennsylvania, USA
Distance from station: SW 18mi, 29km
Updated: 10/22/2017 5:35am
Clear
Clear
 Wind from calm
Wind: Calm
Temperature: 50°F , 10°C
Dew Point: 45°F , 7°C
Humidity: 82%
Barometer: 30.39 inHg , 1029.1 hPa
Clouds: Clear
Visibility: 10 miles , 16 km
2017/10/22 09:35 KMQS 220935Z AUTO 00000KT 10SM CLR 10/07 A3039 RMK AO2
 
KLOM - Philly Wings F, Pennsylvania, USA
Distance from station: E 19mi, 31km
Updated: 10/22/2017 5:35am
Clear
Clear
 Wind from calm
Wind: Calm
Temperature: 41°F , 5°C
Dew Point: 41°F , 5°C
Humidity: 100%
Barometer: 30.39 inHg , 1029.1 hPa
Clouds: Clear
Visibility: 10 miles , 16 km
2017/10/22 09:35 KLOM 220935Z AUTO 00000KT 10SM CLR 05/05 A3039 RMK AO1
KRDG - Reading, Pennsylvania, USA
Distance from station: NW 22mi, 36km
Updated: 10/22/2017 4:54am
Clear
Clear
 Wind from calm
Wind: Calm
Temperature: 45°F , 7°C
Dew Point: 45°F , 7°C
Humidity: 100%
Barometer: 30.36 inHg , 1028.1 hPa
Clouds: Clear
Visibility: 10 miles , 16 km
2017/10/22 08:54 KRDG 220854Z AUTO 00000KT 10SM CLR 07/07 A3036 RMK AO2 SLP285 T00670067 53005
 
KUKT - Quakertown Arp, Pennsylvania, USA
Distance from station: NE 22mi, 36km
Updated: 10/22/2017 5:35am
Clear
Clear
 Wind from calm
Wind: Calm
Temperature: 41°F , 5°C
Dew Point: 39°F , 4°C
Humidity: 93%
Barometer: 30.38 inHg , 1028.8 hPa
Clouds: Clear
Visibility: 10 miles , 16 km
2017/10/22 09:35 KUKT 220935Z AUTO 00000KT 10SM CLR 05/04 A3038 RMK AO1
KXLL - Allentown Queen, Pennsylvania, USA
Distance from station: NNE 28mi, 46km
Updated: 10/22/2017 5:35am
Clear
Clear
 Wind from calm
Wind: Calm
Temperature: 45°F , 7°C
Dew Point: 43°F , 6°C
Humidity: 93%
Barometer: 30.40 inHg , 1029.5 hPa
Clouds: Clear
Visibility: 10 miles , 16 km
2017/10/22 09:35 KXLL 220935Z AUTO 00000KT 10SM CLR 07/06 A3040 RMK AO2
 
KDYL - Doylestown, Pennsylvania, USA
Distance from station: ENE 29mi, 47km
Updated: 10/22/2017 4:54am
Clear
Clear
 Wind from calm
Wind: Calm
Temperature: 45°F , 7°C
Dew Point: 43°F , 6°C
Humidity: 93%
Barometer: 30.36 inHg , 1028.1 hPa
Clouds: Clear
Visibility: 10 miles , 16 km
2017/10/22 08:54 KDYL 220854Z AUTO 00000KT 10SM CLR 07/06 A3036 RMK AO2 SLP279 T00720056 51002
KPHL - Philadelphia, Pennsylvania, USA
Distance from station: SE 30mi, 48km
Updated: 10/22/2017 4:54am
Few Clouds
Few Clouds
 Wind from calm
Wind: Calm
Temperature: 52°F , 11°C
Dew Point: 46°F , 8°C
Humidity: 82%
Barometer: 30.36 inHg , 1028.1 hPa
Clouds: Few Clouds
Visibility: 10 miles , 16 km
Cloud details: Few Clouds 25000 ft
2017/10/22 08:54 KPHL 220854Z 00000KT 10SM FEW250 11/08 A3036 RMK AO2 SLP281 T01110078 53001
 
KPNE - Philadelphia/Ne, Pennsylvania, USA
Distance from station: E 33mi, 53km
Updated: 10/22/2017 4:54am
Clear
Clear
 Wind from calm
Wind: Calm
Temperature: 48°F , 9°C
Dew Point: 45°F , 7°C
Humidity: 87%
Barometer: 30.38 inHg , 1028.8 hPa
Clouds: Clear
Visibility: 8 miles , 13 km
2017/10/22 08:54 KPNE 220854Z AUTO 00000KT 8SM CLR 09/07 A3038 RMK AO2 SLP286 T00940072 52002 $
KABE - Allentown, Pennsylvania, USA
Distance from station: NNE 34mi, 55km
Updated: 10/22/2017 4:51am
Clear
Clear
 Wind from NNW
Wind: NNW 3 mph , 6 km/h
Temperature: 43°F , 6°C
Dew Point: 39°F , 4°C
Humidity: 87%
Barometer: 30.37 inHg , 1028.4 hPa
Clouds: Clear
Visibility: 10 miles , 16 km
2017/10/22 08:51 KABE 220851Z 33003KT 10SM CLR 06/04 A3037 RMK AO2 SLP283 T00610039 51003
 
KILG - Wilmington, Delaware, USA
Distance from station: S 35mi, 56km
Updated: 10/22/2017 5:21am
Few Clouds
Few Clouds
 Wind from NNW
Wind: NNW 3 mph , 6 km/h
Temperature: 48°F , 9°C
Dew Point: 46°F , 8°C
Humidity: 94%
Barometer: 30.38 inHg , 1028.8 hPa
Clouds: Few Clouds
Visibility: 10 miles , 16 km
Cloud details: Few Clouds 200 ft
2017/10/22 09:21 KILG 220921Z AUTO 33003KT 10SM FEW002 09/08 A3038 RMK AO2 T00890083
KLNS - Lancaster, Pennsylvania, USA
Distance from station: W 36mi, 57km
Updated: 10/22/2017 4:53am
Mist, Clear
Mist, Clear
 Wind from calm
Wind: Calm
Temperature: 46°F , 8°C
Dew Point: 46°F , 8°C
Humidity: 100%
Barometer: 30.36 inHg , 1028.1 hPa
Summary: Mist
Clouds: Clear
Visibility: 5 miles , 8 km
2017/10/22 08:53 KLNS 220853Z AUTO 00000KT 5SM BR CLR 08/08 A3036 RMK AO2 SLP281 T00830078 53005
 
KTTN - Trenton, New Jersey, USA
Distance from station: E 44mi, 70km
Updated: 10/22/2017 4:53am
Clear
Clear
 Wind from calm
Wind: Calm
Temperature: 46°F , 8°C
Dew Point: 45°F , 7°C
Humidity: 93%
Barometer: 30.36 inHg , 1028.1 hPa
Clouds: Clear
Visibility: 10 miles , 16 km
2017/10/22 08:53 KTTN 220853Z AUTO 00000KT 10SM CLR 08/07 A3036 RMK AO2 SLP274 T00830067 53001
KVAY - Mount Holly, New Jersey, USA
Distance from station: ESE 45mi, 73km
Updated: 10/22/2017 4:54am

 
Barometer: 30.36 inHg , 1028.1 hPa
2017/10/22 08:54 KVAY 220854Z AUTO A3036 RMK AO2 SLPNO 53002 PWINO FZRANO $
 
KMUI - Muir Aaf/Indiant, Pennsylvania, USA
Distance from station: WNW 52mi, 84km
Updated: 10/22/2017 4:58am
Clear
Clear
 Wind from calm
Wind: Calm
Temperature: 45°F , 7°C
Dew Point: 45°F , 7°C
Humidity: 100%
Barometer: 30.36 inHg , 1028.1 hPa
Clouds: Clear
Visibility: 10 miles , 16 km
2017/10/22 08:58 KMUI 220858Z AUTO 00000KT 10SM CLR 07/07 A3036 RMK AO2 SLP284 T00680068 50004
KAPG - Aberdeen/Phillip, Maryland, USA
Distance from station: SSW 56mi, 91km
Updated: 10/21/2017 10:58pm
NOT Current
Clear
Clear
 Wind from calm
Wind: Calm
Temperature: 52°F , 11°C
Dew Point: 52°F , 11°C
Humidity: 100%
Barometer: 30.37 inHg , 1028.4 hPa
Clouds: Clear
Visibility: 10 miles , 16 km
2017/10/22 02:58 KAPG 220258Z AUTO 00000KT 10SM CLR 11/11 A3037 RMK AO2 SLP287 T01060105 51002 $
 
KWRI - Wrightst/Mcguire, New Jersey, USA
Distance from station: E 56mi, 91km
Updated: 10/22/2017 4:56am
Clear
Clear
 Wind from calm
Wind: Calm
Temperature: 45°F , 7°C
Dew Point: 45°F , 7°C
Humidity: 100%
Barometer: 30.34 inHg , 1027.4 hPa
Clouds: Clear
Visibility: 10 miles , 16 km
2017/10/22 08:56 KWRI 220856Z AUTO 00000KT 10SM CLR 07/07 A3034 RMK AO2 SLP274 T00720065 53000
KSMQ - Somerville, New Jersey, USA
Distance from station: ENE 59mi, 96km
Updated: 10/22/2017 4:53am
Clear
Clear
 Wind from calm
Wind: Calm
Temperature: 41°F , 5°C
Dew Point: 39°F , 4°C
Humidity: 93%
Barometer: 30.35 inHg , 1027.8 hPa
Clouds: Clear
Visibility: 9 miles , 14 km
2017/10/22 08:53 KSMQ 220853Z AUTO 00000KT 9SM CLR 05/04 A3035 RMK AO2 SLP278 T00500044 53001
 
KMDT - Middletown, Pennsylvania, USA
Distance from station: W 60mi, 97km
Updated: 10/22/2017 4:56am
Few Clouds
Few Clouds
 Wind from N
Wind: N 3 mph , 6 km/h
Temperature: 48°F , 9°C
Dew Point: 46°F , 8°C
Humidity: 94%
Barometer: 30.36 inHg , 1028.1 hPa
Clouds: Few Clouds
Visibility: 10 miles , 16 km
Cloud details: Few Clouds 25000 ft
2017/10/22 08:56 KMDT 220856Z 36003KT 10SM FEW250 09/08 A3036 RMK AO2 SLP282 T00890078 53007
KMIV - Millville, New Jersey, USA
Distance from station: SSE 63mi, 101km
Updated: 10/22/2017 5:47am
Fog, Overcast
Fog, Overcast
 Wind from calm
Wind: Calm
Temperature: 46°F , 8°C
Dew Point: 46°F , 8°C
Humidity: 100%
Barometer: 30.37 inHg , 1028.4 hPa
Summary: Fog
Clouds: Overcast
Visibility: 1/4 mile , 2 km
Cloud details: Overcast 100 ft
2017/10/22 09:47 KMIV 220947Z AUTO 00000KT 1/4SM FG VV001 08/08 A3037 RMK AO2 T00780078 TSNO